createdAt,value
2023-07-11T00:00:35.243Z,22.83
2023-07-11T00:01:35.224Z,22.78
2023-07-11T00:02:35.194Z,22.83
2023-07-11T00:03:35.193Z,22.76
2023-07-11T00:04:56.140Z,22.76
2023-07-11T00:05:35.118Z,22.78
2023-07-11T00:06:35.091Z,22.75
2023-07-11T00:07:35.043Z,22.75
2023-07-11T00:08:35.014Z,22.70
2023-07-11T00:09:34.980Z,22.73
2023-07-11T00:10:55.951Z,22.60
2023-07-11T00:11:34.924Z,22.69
2023-07-11T00:12:34.899Z,22.65
2023-07-11T00:13:34.885Z,22.55
2023-07-11T00:14:34.849Z,22.62
2023-07-11T00:15:34.817Z,22.54
2023-07-11T00:16:55.862Z,22.53
2023-07-11T00:17:34.785Z,22.53
2023-07-11T00:18:34.730Z,22.51
2023-07-11T00:19:34.702Z,22.41
2023-07-11T00:20:34.662Z,22.44
2023-07-11T00:21:34.652Z,22.39
2023-07-11T00:22:55.605Z,22.45
2023-07-11T00:23:34.608Z,22.32
2023-07-11T00:24:34.562Z,22.39
2023-07-11T00:25:34.533Z,22.41
2023-07-11T00:26:34.490Z,22.44
2023-07-11T00:27:34.470Z,22.41
2023-07-11T00:28:55.431Z,22.38
2023-07-11T00:29:34.418Z,22.35
2023-07-11T00:30:34.412Z,22.26
2023-07-11T00:31:34.450Z,22.26
2023-07-11T00:32:34.366Z,22.20
2023-07-11T00:33:34.295Z,22.13
2023-07-11T00:34:55.258Z,22.14
2023-07-11T00:35:34.239Z,22.18
2023-07-11T00:36:34.202Z,22.25
2023-07-11T00:37:34.168Z,22.23
2023-07-11T00:38:34.162Z,22.17
2023-07-11T00:39:34.134Z,22.13
2023-07-11T00:40:55.085Z,22.14
2023-07-11T00:41:34.072Z,22.02
2023-07-11T00:42:34.025Z,22.07
2023-07-11T00:43:34.011Z,21.95
2023-07-11T00:44:33.986Z,22.06
2023-07-11T00:45:33.956Z,21.99
2023-07-11T00:46:54.955Z,21.95
2023-07-11T00:47:33.922Z,22.04
2023-07-11T00:48:33.873Z,22.07
2023-07-11T00:49:33.833Z,21.98
2023-07-11T00:50:33.808Z,21.91
2023-07-11T00:51:33.766Z,21.95
2023-07-11T00:52:54.760Z,21.91
2023-07-11T00:53:33.712Z,22.02
2023-07-11T00:54:33.690Z,21.98
2023-07-11T00:55:33.668Z,21.96
2023-07-11T00:56:33.620Z,21.98
2023-07-11T00:57:33.612Z,21.99
2023-07-11T00:58:54.568Z,21.92
2023-07-11T00:59:33.546Z,21.89
2023-07-11T01:00:33.532Z,21.91
2023-07-11T01:01:33.478Z,21.92
2023-07-11T01:02:33.499Z,21.88
2023-07-11T01:03:33.556Z,21.83
2023-07-11T01:04:54.384Z,21.77
2023-07-11T01:05:33.360Z,21.82
2023-07-11T01:06:33.332Z,21.79
2023-07-11T01:07:33.311Z,21.82
2023-07-11T01:08:33.280Z,21.80
2023-07-11T01:09:33.254Z,21.79
2023-07-11T01:10:54.829Z,21.77
2023-07-11T01:11:33.231Z,21.67
2023-07-11T01:12:33.151Z,21.75
2023-07-11T01:13:33.166Z,21.73
2023-07-11T01:14:33.154Z,21.70
2023-07-11T01:15:33.080Z,21.67
2023-07-11T01:16:54.126Z,21.62
2023-07-11T01:17:33.045Z,21.70
2023-07-11T01:18:32.992Z,21.61
2023-07-11T01:19:32.955Z,21.62
2023-07-11T01:20:32.915Z,21.67
2023-07-11T01:21:32.894Z,21.60
2023-07-11T01:22:53.861Z,21.55
2023-07-11T01:23:32.838Z,21.55
2023-07-11T01:24:32.807Z,21.57
2023-07-11T01:25:32.780Z,21.58
2023-07-11T01:26:32.745Z,21.52
2023-07-11T01:27:32.731Z,21.51
2023-07-11T01:28:53.677Z,21.54
2023-07-11T01:29:32.665Z,21.52
2023-07-11T01:30:32.673Z,21.54
2023-07-11T01:31:32.610Z,21.57
2023-07-11T01:32:32.582Z,21.52
2023-07-11T01:33:32.547Z,21.54
2023-07-11T01:34:53.507Z,21.42
2023-07-11T01:35:32.486Z,21.37
2023-07-11T01:36:32.474Z,21.39
2023-07-11T01:37:32.428Z,21.36
2023-07-11T01:38:32.383Z,21.51
2023-07-11T01:39:32.374Z,21.35
2023-07-11T01:40:53.331Z,21.46
2023-07-11T01:41:32.311Z,21.42
2023-07-11T01:42:32.284Z,21.42
2023-07-11T01:43:32.254Z,21.39
2023-07-11T01:44:32.213Z,21.37
2023-07-11T01:45:32.192Z,21.37
2023-07-11T01:46:53.163Z,21.36
2023-07-11T01:47:32.149Z,21.36
2023-07-11T01:48:32.096Z,21.40
2023-07-11T01:49:32.066Z,21.43
2023-07-11T01:50:32.034Z,21.40
2023-07-11T01:51:32.248Z,21.36
2023-07-11T01:52:52.970Z,21.30
2023-07-11T01:53:31.971Z,21.35
2023-07-11T01:54:31.928Z,21.36
2023-07-11T01:55:31.894Z,21.39
2023-07-11T01:56:31.844Z,21.39
2023-07-11T01:57:31.840Z,21.29
2023-07-11T01:58:52.785Z,21.32
2023-07-11T01:59:31.755Z,21.37
2023-07-11T02:00:31.725Z,21.29
2023-07-11T02:01:31.760Z,21.35
2023-07-11T02:02:31.734Z,21.35
2023-07-11T02:03:31.720Z,21.27
2023-07-11T02:04:52.626Z,21.27
2023-07-11T02:05:31.593Z,21.32
2023-07-11T02:06:31.575Z,21.30
2023-07-11T02:07:31.541Z,21.24
2023-07-11T02:08:31.522Z,21.27
2023-07-11T02:09:31.484Z,21.29
2023-07-11T02:10:52.466Z,21.21
2023-07-11T02:11:31.416Z,21.20
2023-07-11T02:12:31.393Z,21.18
2023-07-11T02:13:31.399Z,21.21
2023-07-11T02:14:31.321Z,21.21
2023-07-11T02:15:31.309Z,21.18
2023-07-11T02:16:52.421Z,21.21
2023-07-11T02:17:31.417Z,21.18
2023-07-11T02:18:31.227Z,21.22
2023-07-11T02:19:31.182Z,21.20
2023-07-11T02:20:31.156Z,21.18
2023-07-11T02:21:31.130Z,21.12
2023-07-11T02:22:52.082Z,21.20
2023-07-11T02:23:31.123Z,21.11
2023-07-11T02:24:31.036Z,21.15
2023-07-11T02:25:31.018Z,21.20
2023-07-11T02:26:30.986Z,21.18
2023-07-11T02:27:31.060Z,21.20
2023-07-11T02:28:51.907Z,21.17
2023-07-11T02:29:30.906Z,21.21
2023-07-11T02:30:30.853Z,21.11
2023-07-11T02:31:30.847Z,21.12
2023-07-11T02:32:30.832Z,21.12
2023-07-11T02:33:30.771Z,21.12
2023-07-11T02:34:51.747Z,21.11
2023-07-11T02:35:30.715Z,21.12
2023-07-11T02:36:30.683Z,21.07
2023-07-11T02:37:30.649Z,21.07
2023-07-11T02:38:30.611Z,21.12
2023-07-11T02:39:30.606Z,21.03
2023-07-11T02:40:51.563Z,21.07
2023-07-11T02:41:30.558Z,21.11
2023-07-11T02:42:30.495Z,21.09
2023-07-11T02:43:30.482Z,21.11
2023-07-11T02:44:30.439Z,21.07
2023-07-11T02:45:30.417Z,21.11
2023-07-11T02:46:51.380Z,21.17
2023-07-11T02:47:30.416Z,21.09
2023-07-11T02:48:30.375Z,21.02
2023-07-11T02:49:30.296Z,21.14
2023-07-11T02:50:30.269Z,21.02
2023-07-11T02:51:30.234Z,20.97
2023-07-11T02:52:51.194Z,21.00
2023-07-11T02:53:30.167Z,21.03
2023-07-11T02:54:30.142Z,21.00
2023-07-11T02:55:30.121Z,20.97
2023-07-11T02:56:30.094Z,21.00
2023-07-11T02:57:30.061Z,20.99
2023-07-11T02:58:51.038Z,21.06
2023-07-11T02:59:30.002Z,21.03
2023-07-11T03:00:29.956Z,21.03
2023-07-11T03:01:29.975Z,20.99
2023-07-11T03:02:29.917Z,21.05
2023-07-11T03:03:29.880Z,21.02
2023-07-11T03:04:50.860Z,21.00
2023-07-11T03:05:29.956Z,21.00
2023-07-11T03:06:29.789Z,21.03
2023-07-11T03:07:29.756Z,21.00
2023-07-11T03:08:29.731Z,20.99
2023-07-11T03:09:29.702Z,20.99
2023-07-11T03:10:50.670Z,20.95
2023-07-11T03:11:29.638Z,20.93
2023-07-11T03:12:29.603Z,20.96
2023-07-11T03:13:29.647Z,20.92
2023-07-11T03:14:29.554Z,20.99
2023-07-11T03:15:29.532Z,20.99
2023-07-11T03:16:50.562Z,20.97
2023-07-11T03:17:29.460Z,21.03
2023-07-11T03:18:29.446Z,21.00
2023-07-11T03:19:29.406Z,20.99
2023-07-11T03:20:29.366Z,21.02
2023-07-11T03:21:29.354Z,21.02
2023-07-11T03:22:50.308Z,21.03
2023-07-11T03:23:29.341Z,20.99
2023-07-11T03:24:29.242Z,21.02
2023-07-11T03:25:29.227Z,21.00
2023-07-11T03:26:29.191Z,20.99
2023-07-11T03:27:29.161Z,21.03
2023-07-11T03:28:50.146Z,21.05
2023-07-11T03:29:29.112Z,21.00
2023-07-11T03:30:29.100Z,21.03
2023-07-11T03:31:29.143Z,21.05
2023-07-11T03:32:29.061Z,21.06
2023-07-11T03:33:28.991Z,20.99
2023-07-11T03:34:57.973Z,20.96
2023-07-11T03:35:28.925Z,20.99
2023-07-11T03:36:28.893Z,21.02
2023-07-11T03:37:28.866Z,21.07
2023-07-11T03:38:28.843Z,21.02
2023-07-11T03:39:28.817Z,20.99
2023-07-11T03:40:49.778Z,21.05
2023-07-11T03:41:28.752Z,20.99
2023-07-11T03:42:28.733Z,21.07
2023-07-11T03:43:28.685Z,20.99
2023-07-11T03:44:28.650Z,21.03
2023-07-11T03:45:28.627Z,20.99
2023-07-11T03:46:49.603Z,21.02
2023-07-11T03:47:28.581Z,20.99
2023-07-11T03:48:28.542Z,21.02
2023-07-11T03:49:28.501Z,20.99
2023-07-11T03:50:28.496Z,20.97
2023-07-11T03:51:28.445Z,21.00
2023-07-11T03:52:49.431Z,21.02
2023-07-11T03:53:28.395Z,21.00
2023-07-11T03:54:28.378Z,21.02
2023-07-11T03:55:28.326Z,20.96
2023-07-11T03:56:28.381Z,21.00
2023-07-11T03:57:28.264Z,20.97
2023-07-11T03:58:49.244Z,21.00
2023-07-11T03:59:28.209Z,20.88
2023-07-11T04:00:28.201Z,20.87
2023-07-11T04:01:28.208Z,20.87
2023-07-11T04:02:28.159Z,20.99
2023-07-11T04:03:28.170Z,21.00
2023-07-11T04:04:49.057Z,21.00
2023-07-11T04:05:28.030Z,20.96
2023-07-11T04:06:28.000Z,20.97
2023-07-11T04:07:27.976Z,20.90
2023-07-11T04:08:27.949Z,20.92
2023-07-11T04:09:27.924Z,20.95
2023-07-11T04:10:48.878Z,20.92
2023-07-11T04:11:27.871Z,20.97
2023-07-11T04:12:27.821Z,20.90
2023-07-11T04:13:27.825Z,20.93
2023-07-11T04:14:27.772Z,20.92
2023-07-11T04:15:27.728Z,21.00
2023-07-11T04:16:48.810Z,20.93
2023-07-11T04:17:27.668Z,20.87
2023-07-11T04:18:27.641Z,20.95
2023-07-11T04:19:27.590Z,21.02
2023-07-11T04:20:27.588Z,21.00
2023-07-11T04:21:27.558Z,20.84
2023-07-11T04:22:48.523Z,20.92
2023-07-11T04:23:27.488Z,20.93
2023-07-11T04:24:28.375Z,20.97
2023-07-11T04:25:27.428Z,20.92
2023-07-11T04:26:27.414Z,20.90
2023-07-11T04:27:27.393Z,20.93
2023-07-11T04:28:48.349Z,20.92
2023-07-11T04:29:27.313Z,20.92
2023-07-11T04:30:27.302Z,20.90
2023-07-11T04:31:27.290Z,20.90
2023-07-11T04:32:27.242Z,20.99
2023-07-11T04:33:27.209Z,21.00
2023-07-11T04:34:48.169Z,21.00
2023-07-11T04:35:27.133Z,20.97
2023-07-11T04:36:27.132Z,21.00
2023-07-11T04:37:27.082Z,21.00
2023-07-11T04:38:27.045Z,21.03
2023-07-11T04:39:27.055Z,21.06
2023-07-11T04:40:47.987Z,21.02
2023-07-11T04:41:26.958Z,21.05
2023-07-11T04:42:26.925Z,21.05
2023-07-11T04:43:26.890Z,20.99
2023-07-11T04:44:26.872Z,20.99
2023-07-11T04:45:26.850Z,21.02
2023-07-11T04:46:47.851Z,21.12
2023-07-11T04:47:26.815Z,21.06
2023-07-11T04:48:26.775Z,21.09
2023-07-11T04:49:26.763Z,21.12
2023-07-11T04:50:26.681Z,21.07
2023-07-11T04:51:26.679Z,21.18
2023-07-11T04:52:47.636Z,21.17
2023-07-11T04:53:26.598Z,21.05
2023-07-11T04:54:27.331Z,21.02
2023-07-11T04:55:26.541Z,21.14
2023-07-11T04:56:26.507Z,21.09
2023-07-11T04:57:26.472Z,21.11
2023-07-11T04:58:47.453Z,21.07
2023-07-11T04:59:26.433Z,21.18
2023-07-11T05:00:26.388Z,21.09
2023-07-11T05:01:26.407Z,21.09
2023-07-11T05:02:26.344Z,21.12
2023-07-11T05:03:26.330Z,21.18
2023-07-11T05:04:47.267Z,21.20
2023-07-11T05:05:26.241Z,21.21
2023-07-11T05:06:26.237Z,21.15
2023-07-11T05:07:26.190Z,21.15
2023-07-11T05:08:26.172Z,21.14
2023-07-11T05:09:26.117Z,21.20
2023-07-11T05:10:47.087Z,21.25
2023-07-11T05:11:26.052Z,21.21
2023-07-11T05:12:26.050Z,21.22
2023-07-11T05:13:26.006Z,21.27
2023-07-11T05:14:25.975Z,21.24
2023-07-11T05:15:25.981Z,21.29
2023-07-11T05:16:46.958Z,21.32
2023-07-11T05:17:25.982Z,21.33
2023-07-11T05:18:25.853Z,21.32
2023-07-11T05:19:25.830Z,21.33
2023-07-11T05:20:25.799Z,21.33
2023-07-11T05:21:25.771Z,21.33
2023-07-11T05:22:46.722Z,21.29
2023-07-11T05:23:25.711Z,21.39
2023-07-11T05:24:25.678Z,21.42
2023-07-11T05:25:25.652Z,21.36
2023-07-11T05:26:25.635Z,21.51
2023-07-11T05:27:25.571Z,21.45
2023-07-11T05:28:46.583Z,21.45
2023-07-11T05:29:25.542Z,21.45
2023-07-11T05:30:25.521Z,21.45
2023-07-11T05:31:25.479Z,21.57
2023-07-11T05:32:25.442Z,21.55
2023-07-11T05:33:25.418Z,21.48
2023-07-11T05:34:46.370Z,21.55
2023-07-11T05:35:25.368Z,21.54
2023-07-11T05:36:25.327Z,21.45
2023-07-11T05:37:25.302Z,21.62
2023-07-11T05:38:25.262Z,21.62
2023-07-11T05:39:25.229Z,21.58
2023-07-11T05:40:46.212Z,21.57
2023-07-11T05:41:25.182Z,21.62
2023-07-11T05:42:25.156Z,21.58
2023-07-11T05:43:25.115Z,21.70
2023-07-11T05:44:25.092Z,21.70
2023-07-11T05:45:25.067Z,21.72
2023-07-11T05:46:48.161Z,21.70
2023-07-11T05:47:25.035Z,21.69
2023-07-11T05:48:24.967Z,21.72
2023-07-11T05:49:24.935Z,21.70
2023-07-11T05:50:24.924Z,21.75
2023-07-11T05:51:24.903Z,21.82
2023-07-11T05:52:45.863Z,21.76
2023-07-11T05:53:26.185Z,21.85
2023-07-11T05:54:24.785Z,21.85
2023-07-11T05:55:24.759Z,21.88
2023-07-11T05:56:24.750Z,21.91
2023-07-11T05:57:24.702Z,21.91
2023-07-11T05:58:45.677Z,21.92
2023-07-11T05:59:24.651Z,21.98
2023-07-11T06:00:24.622Z,22.02
2023-07-11T06:01:24.601Z,21.98
2023-07-11T06:02:24.612Z,21.98
2023-07-11T06:03:24.545Z,21.98
2023-07-11T06:04:45.493Z,22.04
2023-07-11T06:05:24.468Z,22.02
2023-07-11T06:06:24.453Z,22.07
2023-07-11T06:07:24.421Z,22.07
2023-07-11T06:08:24.386Z,22.17
2023-07-11T06:09:24.349Z,22.11
2023-07-11T06:10:45.346Z,22.15
2023-07-11T06:11:24.290Z,22.23
2023-07-11T06:12:24.265Z,22.20
2023-07-11T06:13:24.242Z,22.23
2023-07-11T06:14:24.350Z,22.20
2023-07-11T06:15:24.171Z,22.26
2023-07-11T06:16:46.354Z,22.29
2023-07-11T06:17:24.145Z,22.33
2023-07-11T06:18:24.109Z,22.29
2023-07-11T06:19:24.056Z,22.38
2023-07-11T06:20:24.029Z,22.36
2023-07-11T06:21:24.009Z,22.38
2023-07-11T06:22:44.973Z,22.39
2023-07-11T06:23:23.949Z,22.39
2023-07-11T06:24:23.917Z,22.53
2023-07-11T06:25:23.896Z,22.54
2023-07-11T06:26:23.869Z,22.54
2023-07-11T06:27:23.830Z,22.54
2023-07-11T06:28:44.868Z,22.60
2023-07-11T06:29:23.778Z,22.62
2023-07-11T06:30:23.763Z,22.65
2023-07-11T06:31:23.757Z,22.72
2023-07-11T06:32:23.716Z,22.73
2023-07-11T06:33:23.657Z,22.78
2023-07-11T06:34:44.650Z,22.81
2023-07-11T06:35:23.604Z,22.81
2023-07-11T06:36:23.575Z,22.87
2023-07-11T06:37:23.536Z,22.88
2023-07-11T06:38:23.508Z,22.91
2023-07-11T06:39:23.485Z,22.90
2023-07-11T06:40:44.447Z,22.93
2023-07-11T06:41:23.459Z,23.03
2023-07-11T06:42:23.396Z,22.96
2023-07-11T06:43:23.371Z,23.08
2023-07-11T06:44:23.380Z,23.17
2023-07-11T06:45:23.346Z,23.24
2023-07-11T06:46:44.286Z,23.27
2023-07-11T06:47:23.250Z,23.36
2023-07-11T06:48:23.246Z,23.37
2023-07-11T06:49:23.251Z,23.37
2023-07-11T06:50:24.214Z,23.40
2023-07-11T06:51:23.137Z,23.51
2023-07-11T06:52:44.108Z,23.44
2023-07-11T06:53:23.076Z,23.48
2023-07-11T06:54:23.069Z,23.56
2023-07-11T06:55:23.021Z,23.63
2023-07-11T06:56:23.008Z,23.76
2023-07-11T06:57:22.974Z,23.69
2023-07-11T06:58:43.946Z,23.78
2023-07-11T06:59:22.919Z,23.88
2023-07-11T07:00:22.884Z,23.80
2023-07-11T07:01:35.268Z,23.87
2023-07-11T07:02:22.972Z,23.92
2023-07-11T07:03:22.898Z,24.01
2023-07-11T07:04:43.776Z,23.98
2023-07-11T07:05:22.748Z,24.14
2023-07-11T07:06:22.727Z,24.02
2023-07-11T07:07:22.709Z,24.13
2023-07-11T07:08:22.668Z,24.11
2023-07-11T07:09:23.488Z,24.20
2023-07-11T07:10:43.602Z,24.32
2023-07-11T07:11:22.665Z,24.26
2023-07-11T07:12:22.593Z,24.29
2023-07-11T07:13:22.605Z,24.42
2023-07-11T07:14:22.612Z,24.45
2023-07-11T07:15:22.450Z,24.50
2023-07-11T07:16:43.474Z,24.50
2023-07-11T07:17:22.599Z,24.57
2023-07-11T07:18:22.387Z,24.66
2023-07-11T07:19:22.370Z,24.60
2023-07-11T07:20:22.340Z,24.78
2023-07-11T07:21:22.304Z,24.69
2023-07-11T07:22:43.268Z,24.76
2023-07-11T07:23:22.241Z,24.88
2023-07-11T07:24:22.203Z,24.95
2023-07-11T07:25:26.554Z,24.93
2023-07-11T07:26:22.153Z,25.04
2023-07-11T07:27:28.408Z,25.10
2023-07-11T07:28:43.104Z,25.06
2023-07-11T07:29:22.065Z,25.21
2023-07-11T07:30:22.052Z,25.22
2023-07-11T07:31:22.064Z,25.23
2023-07-11T07:32:22.004Z,25.32
2023-07-11T07:33:21.990Z,25.46
2023-07-11T07:34:42.958Z,25.48
2023-07-11T07:35:21.923Z,25.50
2023-07-11T07:36:21.887Z,25.59
2023-07-11T07:37:21.861Z,25.63
2023-07-11T07:38:21.826Z,25.70
2023-07-11T07:39:21.792Z,25.70
2023-07-11T07:40:42.819Z,25.77
2023-07-11T07:41:21.769Z,25.83
2023-07-11T07:42:21.719Z,25.87
2023-07-11T07:43:21.709Z,25.91
2023-07-11T07:44:21.715Z,26.00
2023-07-11T07:45:21.662Z,26.05
2023-07-11T07:46:42.673Z,26.06
2023-07-11T07:47:21.636Z,26.09
2023-07-11T07:48:21.559Z,26.06
2023-07-11T07:49:21.549Z,26.22
2023-07-11T07:50:21.514Z,26.18
2023-07-11T07:51:21.481Z,26.23
2023-07-11T07:52:42.447Z,26.26
2023-07-11T07:53:21.438Z,26.28
2023-07-11T07:54:21.415Z,26.36
2023-07-11T07:55:21.364Z,26.43
2023-07-11T07:56:21.366Z,26.41
2023-07-11T07:57:21.335Z,26.43
2023-07-11T07:58:44.014Z,26.52
2023-07-11T07:59:21.261Z,26.53
2023-07-11T08:00:21.244Z,26.56
2023-07-11T08:01:21.213Z,26.65
2023-07-11T08:02:21.219Z,26.70
2023-07-11T08:03:21.273Z,26.65
2023-07-11T08:04:42.225Z,26.70
2023-07-11T08:05:21.112Z,26.83
2023-07-11T08:06:21.136Z,26.80
2023-07-11T08:07:21.048Z,26.88
2023-07-11T08:08:22.512Z,26.96
2023-07-11T08:09:20.999Z,26.92
2023-07-11T08:10:41.973Z,26.96
2023-07-11T08:11:20.962Z,26.97
2023-07-11T08:12:20.911Z,27.08
2023-07-11T08:13:20.891Z,27.08
2023-07-11T08:14:20.883Z,27.20
2023-07-11T08:15:20.840Z,27.17
2023-07-11T08:16:41.854Z,27.10
2023-07-11T08:17:20.877Z,27.15
2023-07-11T08:18:20.784Z,27.22
2023-07-11T08:19:20.726Z,27.30
2023-07-11T08:20:20.704Z,27.29
2023-07-11T08:21:20.696Z,27.42
2023-07-11T08:22:41.666Z,27.48
2023-07-11T08:23:20.631Z,27.39
2023-07-11T08:24:20.646Z,27.49
2023-07-11T08:25:20.583Z,27.51
2023-07-11T08:26:20.550Z,27.51
2023-07-11T08:27:20.540Z,27.63
2023-07-11T08:28:41.501Z,27.60
2023-07-11T08:29:29.763Z,27.59
2023-07-11T08:30:20.440Z,27.64
2023-07-11T08:31:20.518Z,27.64
2023-07-11T08:32:20.448Z,27.65
2023-07-11T08:33:20.399Z,27.65
2023-07-11T08:34:41.383Z,27.70
2023-07-11T08:35:20.315Z,27.70
2023-07-11T08:36:20.317Z,27.75
2023-07-11T08:37:20.263Z,27.73
2023-07-11T08:38:20.233Z,27.77
2023-07-11T08:39:20.212Z,27.77
2023-07-11T08:40:48.193Z,27.80
2023-07-11T08:41:20.167Z,27.77
2023-07-11T08:42:20.220Z,27.75
2023-07-11T08:43:20.146Z,27.80
2023-07-11T08:44:20.093Z,27.82
2023-07-11T08:45:20.062Z,27.90
2023-07-11T08:46:41.058Z,27.95
2023-07-11T08:47:20.001Z,27.96
2023-07-11T08:48:20.564Z,28.02
2023-07-11T08:49:19.952Z,27.98
2023-07-11T08:50:19.965Z,27.95
2023-07-11T08:51:19.933Z,28.07
2023-07-11T08:52:40.878Z,28.05
2023-07-11T08:53:19.851Z,28.05
2023-07-11T08:54:22.123Z,28.04
2023-07-11T08:55:19.853Z,28.02
2023-07-11T08:56:19.795Z,28.01
2023-07-11T08:57:19.750Z,28.19
2023-07-11T08:58:40.726Z,28.07
2023-07-11T08:59:19.684Z,28.07
2023-07-11T09:00:19.696Z,28.17
2023-07-11T09:01:19.650Z,28.27
2023-07-11T09:02:19.617Z,28.22
2023-07-11T09:03:19.638Z,28.23
2023-07-11T09:04:40.564Z,28.17
2023-07-11T09:05:19.529Z,28.30
2023-07-11T09:06:19.504Z,28.33
2023-07-11T09:07:19.489Z,28.27
2023-07-11T09:08:19.461Z,28.32
2023-07-11T09:09:19.429Z,28.37
2023-07-11T09:10:48.625Z,28.42
2023-07-11T09:11:19.388Z,28.42
2023-07-11T09:12:19.357Z,28.54
2023-07-11T09:13:19.323Z,28.51
2023-07-11T09:14:19.380Z,28.52
2023-07-11T09:15:19.278Z,28.47
2023-07-11T09:16:40.315Z,28.54
2023-07-11T09:17:19.257Z,28.54
2023-07-11T09:18:19.207Z,28.49
2023-07-11T09:19:19.191Z,28.59
2023-07-11T09:20:19.158Z,28.59
2023-07-11T09:21:19.173Z,28.54
2023-07-11T09:22:40.099Z,28.54
2023-07-11T09:23:37.112Z,28.63
2023-07-11T09:24:22.202Z,28.60
2023-07-11T09:25:19.028Z,28.66
2023-07-11T09:26:19.022Z,28.70
2023-07-11T09:27:18.996Z,28.70
2023-07-11T09:28:39.958Z,28.75
2023-07-11T09:29:18.923Z,28.76
2023-07-11T09:30:18.954Z,28.66
2023-07-11T09:31:18.957Z,28.72
2023-07-11T09:32:19.114Z,28.69
2023-07-11T09:33:18.915Z,28.76
2023-07-11T09:34:39.797Z,28.76
2023-07-11T09:35:18.772Z,28.76
2023-07-11T09:36:18.748Z,28.79
2023-07-11T09:37:18.745Z,28.76
2023-07-11T09:38:18.706Z,28.81
2023-07-11T09:39:18.674Z,28.86
2023-07-11T09:40:39.660Z,28.85
2023-07-11T09:41:18.629Z,28.86
2023-07-11T09:42:18.614Z,28.82
2023-07-11T09:43:18.573Z,28.86
2023-07-11T09:44:18.561Z,28.96
2023-07-11T09:45:18.531Z,28.96
2023-07-11T09:46:39.573Z,29.01
2023-07-11T09:47:18.487Z,28.97
2023-07-11T09:48:18.487Z,29.08
2023-07-11T09:49:18.421Z,29.19
2023-07-11T09:50:25.855Z,29.16
2023-07-11T09:51:18.391Z,29.17
2023-07-11T09:52:39.344Z,29.19
2023-07-11T09:53:18.327Z,29.22
2023-07-11T09:54:18.298Z,29.22
2023-07-11T09:55:18.275Z,29.23
2023-07-11T09:56:18.589Z,29.23
2023-07-11T09:57:18.214Z,29.23
2023-07-11T09:58:39.252Z,29.23
2023-07-11T09:59:18.176Z,29.27
2023-07-11T10:00:22.602Z,29.34
2023-07-11T10:01:18.191Z,29.31
2023-07-11T10:02:18.101Z,29.39
2023-07-11T10:03:18.074Z,29.42
2023-07-11T10:04:39.081Z,29.51
2023-07-11T10:05:18.033Z,29.51
2023-07-11T10:06:18.745Z,29.57
2023-07-11T10:07:17.966Z,29.60
2023-07-11T10:08:17.956Z,29.51
2023-07-11T10:09:17.944Z,29.49
2023-07-11T10:10:38.894Z,29.49
2023-07-11T10:11:17.895Z,29.51
2023-07-11T10:12:17.859Z,29.53
2023-07-11T10:13:25.801Z,29.53
2023-07-11T10:14:17.851Z,29.59
2023-07-11T10:15:17.771Z,29.59
2023-07-11T10:16:38.800Z,29.59
2023-07-11T10:17:17.769Z,29.59
2023-07-11T10:18:17.754Z,29.57
2023-07-11T10:19:17.662Z,29.59
2023-07-11T10:20:19.403Z,29.69
2023-07-11T10:21:19.688Z,29.75
2023-07-11T10:22:38.619Z,29.69
2023-07-11T10:23:17.619Z,29.71
2023-07-11T10:24:17.551Z,29.86
2023-07-11T10:25:17.524Z,29.78
2023-07-11T10:26:17.530Z,29.90
2023-07-11T10:27:17.486Z,29.91
2023-07-11T10:28:38.474Z,29.91
2023-07-11T10:29:25.106Z,29.88
2023-07-11T10:30:17.403Z,29.88
2023-07-11T10:31:17.418Z,29.91
2023-07-11T10:32:17.356Z,29.86
2023-07-11T10:33:21.623Z,29.95
2023-07-11T10:34:38.346Z,30.02
2023-07-11T10:35:17.281Z,30.02
2023-07-11T10:36:17.257Z,29.97
2023-07-11T10:37:17.234Z,30.10
2023-07-11T10:38:17.382Z,30.10
2023-07-11T10:39:17.187Z,30.28
2023-07-11T10:40:38.172Z,30.34
2023-07-11T10:41:17.126Z,30.43
2023-07-11T10:42:17.117Z,30.57
2023-07-11T10:43:17.093Z,30.51
2023-07-11T10:44:17.074Z,30.70
2023-07-11T10:45:17.044Z,30.77
2023-07-11T10:46:38.106Z,30.90
2023-07-11T10:47:16.990Z,30.91
2023-07-11T10:48:16.971Z,30.94
2023-07-11T10:49:16.985Z,30.97
2023-07-11T10:50:16.968Z,31.03
2023-07-11T10:51:16.908Z,31.17
2023-07-11T10:52:37.883Z,31.18
2023-07-11T10:53:16.841Z,31.21
2023-07-11T10:54:16.895Z,31.29
2023-07-11T10:55:16.829Z,31.24
2023-07-11T10:56:16.769Z,31.33
2023-07-11T10:57:20.143Z,31.47
2023-07-11T10:58:37.745Z,31.44
2023-07-11T10:59:16.709Z,31.64
2023-07-11T11:00:16.708Z,31.65
2023-07-11T11:01:16.724Z,31.81
2023-07-11T11:02:16.709Z,31.93
2023-07-11T11:03:16.704Z,32.00
2023-07-11T11:04:37.591Z,32.16
2023-07-11T11:05:16.593Z,32.18
2023-07-11T11:06:16.566Z,32.36
2023-07-11T11:07:16.525Z,32.38
2023-07-11T11:08:16.524Z,32.49
2023-07-11T11:09:16.522Z,32.55
2023-07-11T11:10:37.464Z,32.63
2023-07-11T11:11:16.716Z,32.68
2023-07-11T11:12:16.428Z,32.74
2023-07-11T11:13:16.417Z,32.86
2023-07-11T11:14:16.441Z,33.00
2023-07-11T11:15:16.382Z,32.90
2023-07-11T11:16:37.336Z,32.89
2023-07-11T11:17:16.322Z,33.05
2023-07-11T11:18:16.285Z,33.09
2023-07-11T11:19:16.344Z,33.15
2023-07-11T11:20:16.262Z,33.27
2023-07-11T11:21:21.116Z,33.39
2023-07-11T11:22:37.203Z,33.45
2023-07-11T11:23:16.174Z,33.45
2023-07-11T11:24:16.172Z,33.62
2023-07-11T11:25:16.128Z,33.74
2023-07-11T11:26:16.166Z,33.74
2023-07-11T11:27:16.099Z,33.84
2023-07-11T11:28:37.069Z,34.06
2023-07-11T11:29:16.065Z,34.23
2023-07-11T11:30:16.072Z,34.23
2023-07-11T11:31:16.030Z,34.13
2023-07-11T11:32:16.038Z,33.90
2023-07-11T11:33:15.967Z,34.01
2023-07-11T11:34:36.956Z,33.84
2023-07-11T11:35:16.854Z,34.16
2023-07-11T11:36:15.948Z,34.36
2023-07-11T11:37:15.916Z,34.42
2023-07-11T11:38:15.864Z,34.55
2023-07-11T11:39:15.841Z,34.61
2023-07-11T11:40:36.813Z,34.77
2023-07-11T11:41:15.812Z,34.93
2023-07-11T11:42:15.790Z,34.89
2023-07-11T11:43:19.253Z,35.00
2023-07-11T11:46:39.159Z,35.26
2023-07-11T11:51:15.646Z,35.67
2023-07-11T11:53:17.048Z,35.92
2023-07-11T11:54:15.553Z,35.92
2023-07-11T11:55:15.546Z,35.80
2023-07-11T11:56:22.379Z,35.95
2023-07-11T11:57:15.496Z,36.16
2023-07-11T11:58:36.485Z,35.97
2023-07-11T11:59:15.453Z,35.95
2023-07-11T12:00:15.425Z,36.07
2023-07-11T12:01:15.415Z,36.00
2023-07-11T12:02:15.433Z,36.21
2023-07-11T12:03:15.363Z,36.43
2023-07-11T12:04:36.449Z,36.43
2023-07-11T12:05:15.370Z,36.43
2023-07-11T12:06:15.312Z,36.35
2023-07-11T12:07:15.280Z,36.49
2023-07-11T12:08:15.262Z,36.40
2023-07-11T12:09:15.253Z,36.43
2023-07-11T12:10:36.251Z,36.47
2023-07-11T12:11:15.220Z,36.49
2023-07-11T12:12:15.210Z,36.67
2023-07-11T12:13:15.187Z,36.72
2023-07-11T12:14:15.199Z,36.67
2023-07-11T12:15:15.138Z,36.77
2023-07-11T12:16:42.528Z,36.95
2023-07-11T12:17:15.120Z,37.01
2023-07-11T12:18:15.139Z,37.03
2023-07-11T12:19:16.010Z,37.15
2023-07-11T12:20:15.050Z,37.33
2023-07-11T12:21:15.050Z,37.53
2023-07-11T12:22:36.040Z,37.02
2023-07-11T12:23:29.783Z,36.86
2023-07-11T12:24:41.429Z,37.17
2023-07-11T12:25:14.972Z,37.48
2023-07-11T12:26:14.955Z,37.55
2023-07-11T12:27:14.931Z,37.64
2023-07-11T12:28:35.950Z,37.72
2023-07-11T12:29:14.910Z,37.83
2023-07-11T12:30:14.919Z,37.80
2023-07-11T12:31:14.860Z,37.72
2023-07-11T12:32:14.864Z,37.72
2023-07-11T12:33:14.828Z,37.70
2023-07-11T12:34:35.804Z,37.71
2023-07-11T12:35:14.798Z,37.53
2023-07-11T12:36:14.763Z,37.44
2023-07-11T12:37:14.754Z,37.40
2023-07-11T12:38:14.740Z,37.35
2023-07-11T12:39:14.729Z,37.33
2023-07-11T12:40:35.714Z,37.40
2023-07-11T12:41:14.699Z,37.72
2023-07-11T12:42:14.646Z,37.74
2023-07-11T12:43:14.650Z,37.74
2023-07-11T12:44:14.623Z,37.99
2023-07-11T12:45:14.620Z,38.21
2023-07-11T12:46:35.651Z,38.34
2023-07-11T12:47:14.595Z,38.19
2023-07-11T12:48:14.629Z,37.93
2023-07-11T12:49:14.547Z,38.01
2023-07-11T12:50:14.514Z,38.04
2023-07-11T12:51:14.484Z,38.27
2023-07-11T12:52:35.490Z,38.28
2023-07-11T12:53:14.484Z,38.60
2023-07-11T12:54:14.452Z,38.74
2023-07-11T12:55:14.447Z,38.87
2023-07-11T12:56:14.404Z,38.73
2023-07-11T12:57:14.400Z,38.64
2023-07-11T12:58:35.375Z,38.46
2023-07-11T12:59:14.375Z,38.82